sensor_id;sensor_type;location;lat;lon;timestamp;pressure;altitude;pressure_sealevel;temperature;humidity
29121;BME280;16191;49.548;8.658;2023-05-19T00:01:12;101009.56;;;12.20;60.77
29121;BME280;16191;49.548;8.658;2023-05-19T00:03:54;101007.97;;;12.16;61.17
29121;BME280;16191;49.548;8.658;2023-05-19T00:06:28;101002.69;;;12.17;60.94
29121;BME280;16191;49.548;8.658;2023-05-19T00:09:01;100998.81;;;12.04;61.42
29121;BME280;16191;49.548;8.658;2023-05-19T00:11:28;100996.38;;;11.98;61.99
29121;BME280;16191;49.548;8.658;2023-05-19T00:13:57;101003.22;;;12.02;61.91
29121;BME280;16191;49.548;8.658;2023-05-19T00:16:25;101005.63;;;12.08;61.53
29121;BME280;16191;49.548;8.658;2023-05-19T00:18:53;101005.09;;;11.98;61.68
29121;BME280;16191;49.548;8.658;2023-05-19T00:21:19;101003.31;;;11.99;61.87
29121;BME280;16191;49.548;8.658;2023-05-19T00:23:46;101000.72;;;11.99;62.38
29121;BME280;16191;49.548;8.658;2023-05-19T00:26:13;101002.69;;;11.92;62.40
29121;BME280;16191;49.548;8.658;2023-05-19T00:28:49;100998.31;;;11.93;62.59
29121;BME280;16191;49.548;8.658;2023-05-19T00:31:16;100994.16;;;11.87;63.11
29121;BME280;16191;49.548;8.658;2023-05-19T00:33:43;101011.72;;;11.84;63.36
29121;BME280;16191;49.548;8.658;2023-05-19T00:36:10;101003.09;;;11.80;63.29
29121;BME280;16191;49.548;8.658;2023-05-19T00:38:37;101009.94;;;11.84;63.51
29121;BME280;16191;49.548;8.658;2023-05-19T00:41:05;101018.16;;;11.72;63.83
29121;BME280;16191;49.548;8.658;2023-05-19T00:43:32;101005.25;;;11.67;64.15
29121;BME280;16191;49.548;8.658;2023-05-19T00:46:01;101003.38;;;11.71;64.48
29121;BME280;16191;49.548;8.658;2023-05-19T00:48:28;101008.31;;;11.54;65.30
29121;BME280;16191;49.548;8.658;2023-05-19T00:50:56;101008.31;;;11.54;65.29
29121;BME280;16191;49.548;8.658;2023-05-19T00:53:28;101003.69;;;11.62;65.33
29121;BME280;16191;49.548;8.658;2023-05-19T00:55:55;101000.28;;;11.60;64.92
29121;BME280;16191;49.548;8.658;2023-05-19T00:58:23;100998.66;;;11.56;65.05
29121;BME280;16191;49.548;8.658;2023-05-19T01:00:51;101000.41;;;11.55;65.37
29121;BME280;16191;49.548;8.658;2023-05-19T01:03:18;100995.25;;;11.54;65.66
29121;BME280;16191;49.548;8.658;2023-05-19T01:05:46;100995.44;;;11.48;66.16
29121;BME280;16191;49.548;8.658;2023-05-19T01:08:19;100993.00;;;11.43;66.46
29121;BME280;16191;49.548;8.658;2023-05-19T01:10:45;100991.91;;;11.49;65.83
29121;BME280;16191;49.548;8.658;2023-05-19T01:13:12;100986.59;;;11.52;65.61
29121;BME280;16191;49.548;8.658;2023-05-19T01:16:04;100986.06;;;11.42;66.37
29121;BME280;16191;49.548;8.658;2023-05-19T01:22:14;100981.81;;;11.38;66.67
29121;BME280;16191;49.548;8.658;2023-05-19T01:32:16;100970.75;;;11.30;67.16
29121;BME280;16191;49.548;8.658;2023-05-19T01:34:45;100979.50;;;11.29;67.75
29121;BME280;16191;49.548;8.658;2023-05-19T01:37:15;100972.59;;;11.26;67.34
29121;BME280;16191;49.548;8.658;2023-05-19T01:39:45;100978.63;;;11.28;67.92
29121;BME280;16191;49.548;8.658;2023-05-19T01:42:13;100980.34;;;11.29;67.35
29121;BME280;16191;49.548;8.658;2023-05-19T01:44:41;100979.72;;;11.23;67.64
29121;BME280;16191;49.548;8.658;2023-05-19T01:47:08;100982.19;;;11.26;67.54
29121;BME280;16191;49.548;8.658;2023-05-19T01:49:35;100979.81;;;11.20;68.45
29121;BME280;16191;49.548;8.658;2023-05-19T01:52:02;100977.19;;;11.20;67.67
29121;BME280;16191;49.548;8.658;2023-05-19T01:54:29;100976.16;;;11.25;67.49
29121;BME280;16191;49.548;8.658;2023-05-19T01:57:22;100983.22;;;11.22;67.78
29121;BME280;16191;49.548;8.658;2023-05-19T01:59:57;100988.63;;;11.16;68.35
29121;BME280;16191;49.548;8.658;2023-05-19T02:05:51;100991.28;;;11.14;68.77
29121;BME280;16191;49.548;8.658;2023-05-19T02:08:42;100987.16;;;11.07;68.96
29121;BME280;16191;49.548;8.658;2023-05-19T02:14:24;100998.72;;;11.00;69.79
29121;BME280;16191;49.548;8.658;2023-05-19T02:16:51;100994.53;;;10.94;70.42
29121;BME280;16191;49.548;8.658;2023-05-19T02:19:26;100990.25;;;10.92;70.98
29121;BME280;16191;49.548;8.658;2023-05-19T02:21:54;100998.06;;;10.92;71.16
29121;BME280;16191;49.548;8.658;2023-05-19T02:24:22;100991.28;;;10.86;71.30
29121;BME280;16191;49.548;8.658;2023-05-19T02:26:49;100997.53;;;10.82;71.51
29121;BME280;16191;49.548;8.658;2023-05-19T02:29:18;100996.72;;;10.80;72.21
29121;BME280;16191;49.548;8.658;2023-05-19T02:31:44;100993.38;;;10.75;72.75
29121;BME280;16191;49.548;8.658;2023-05-19T02:34:11;100996.91;;;10.73;73.49
29121;BME280;16191;49.548;8.658;2023-05-19T02:36:39;100993.38;;;10.75;72.65
29121;BME280;16191;49.548;8.658;2023-05-19T02:39:08;100997.94;;;10.67;73.78
29121;BME280;16191;49.548;8.658;2023-05-19T02:41:35;100993.75;;;10.61;74.93
29121;BME280;16191;49.548;8.658;2023-05-19T02:44:02;101001.78;;;10.55;75.40
29121;BME280;16191;49.548;8.658;2023-05-19T02:46:29;100989.03;;;10.45;77.03
29121;BME280;16191;49.548;8.658;2023-05-19T02:48:57;100989.16;;;10.40;77.85
29121;BME280;16191;49.548;8.658;2023-05-19T02:51:23;100988.41;;;10.37;77.88
29121;BME280;16191;49.548;8.658;2023-05-19T02:53:50;100991.91;;;10.36;78.95
29121;BME280;16191;49.548;8.658;2023-05-19T02:56:16;100988.50;;;10.34;78.68
29121;BME280;16191;49.548;8.658;2023-05-19T02:58:43;100989.31;;;10.36;79.92
29121;BME280;16191;49.548;8.658;2023-05-19T03:01:10;100989.59;;;10.25;79.86
29121;BME280;16191;49.548;8.658;2023-05-19T03:03:37;100988.66;;;10.27;80.08
29121;BME280;16191;49.548;8.658;2023-05-19T03:06:03;100987.97;;;10.21;81.19
29121;BME280;16191;49.548;8.658;2023-05-19T03:08:35;100989.63;;;10.23;81.39
29121;BME280;16191;49.548;8.658;2023-05-19T03:11:02;100994.03;;;10.21;80.86
29121;BME280;16191;49.548;8.658;2023-05-19T03:13:29;100996.78;;;10.15;81.68
29121;BME280;16191;49.548;8.658;2023-05-19T03:15:55;100986.25;;;10.20;82.20
29121;BME280;16191;49.548;8.658;2023-05-19T03:18:27;100981.34;;;10.08;83.09
29121;BME280;16191;49.548;8.658;2023-05-19T03:20:54;100980.28;;;10.15;82.87
29121;BME280;16191;49.548;8.658;2023-05-19T03:23:20;100985.81;;;10.03;83.75
29121;BME280;16191;49.548;8.658;2023-05-19T03:25:47;100989.31;;;10.02;84.47
29121;BME280;16191;49.548;8.658;2023-05-19T03:28:14;100980.75;;;9.96;84.91
29121;BME280;16191;49.548;8.658;2023-05-19T03:30:41;100983.31;;;9.98;85.33
29121;BME280;16191;49.548;8.658;2023-05-19T03:33:15;100982.47;;;9.97;85.89
29121;BME280;16191;49.548;8.658;2023-05-19T03:35:43;100988.59;;;9.96;85.43
29121;BME280;16191;49.548;8.658;2023-05-19T03:38:10;100993.94;;;9.92;86.21
29121;BME280;16191;49.548;8.658;2023-05-19T03:40:38;100984.56;;;9.85;87.86
29121;BME280;16191;49.548;8.658;2023-05-19T03:43:09;100987.00;;;9.91;86.87
29121;BME280;16191;49.548;8.658;2023-05-19T03:45:43;100985.22;;;9.93;86.99
29121;BME280;16191;49.548;8.658;2023-05-19T03:48:29;100984.34;;;9.94;86.55
29121;BME280;16191;49.548;8.658;2023-05-19T03:51:28;100993.03;;;9.93;86.22
29121;BME280;16191;49.548;8.658;2023-05-19T03:54:02;100998.03;;;10.01;85.35
29121;BME280;16191;49.548;8.658;2023-05-19T03:56:29;100995.44;;;10.01;85.14
29121;BME280;16191;49.548;8.658;2023-05-19T03:58:56;100997.25;;;9.97;85.61
29121;BME280;16191;49.548;8.658;2023-05-19T04:01:23;100999.00;;;9.96;85.87
29121;BME280;16191;49.548;8.658;2023-05-19T04:03:49;100999.00;;;9.96;85.76
29121;BME280;16191;49.548;8.658;2023-05-19T04:06:16;100998.91;;;10.01;85.71
29121;BME280;16191;49.548;8.658;2023-05-19T04:08:44;101000.59;;;10.02;85.36
29121;BME280;16191;49.548;8.658;2023-05-19T04:11:11;101002.44;;;9.98;85.30
29121;BME280;16191;49.548;8.658;2023-05-19T04:13:38;101000.59;;;10.02;85.54
29121;BME280;16191;49.548;8.658;2023-05-19T04:16:05;100997.88;;;10.07;84.34
29121;BME280;16191;49.548;8.658;2023-05-19T04:18:32;100997.00;;;10.08;84.34
29121;BME280;16191;49.548;8.658;2023-05-19T04:20:59;101008.13;;;10.14;83.89
29121;BME280;16191;49.548;8.658;2023-05-19T04:23:25;101008.13;;;10.14;84.77
29121;BME280;16191;49.548;8.658;2023-05-19T04:25:53;101012.56;;;10.11;84.52
29121;BME280;16191;49.548;8.658;2023-05-19T04:28:20;101011.63;;;10.13;84.11
29121;BME280;16191;49.548;8.658;2023-05-19T04:30:47;101016.81;;;10.15;83.62
29121;BME280;16191;49.548;8.658;2023-05-19T04:33:13;101020.53;;;10.05;85.53
29121;BME280;16191;49.548;8.658;2023-05-19T04:35:41;101021.91;;;10.19;84.48
29121;BME280;16191;49.548;8.658;2023-05-19T04:38:10;101025.28;;;10.23;84.13
29121;BME280;16191;49.548;8.658;2023-05-19T04:40:37;101022.75;;;10.18;87.00
29121;BME280;16191;49.548;8.658;2023-05-19T04:43:07;101026.19;;;10.22;85.56
29121;BME280;16191;49.548;8.658;2023-05-19T04:45:34;101027.97;;;10.20;87.13
29121;BME280;16191;49.548;8.658;2023-05-19T04:48:03;101030.47;;;10.24;87.18
29121;BME280;16191;49.548;8.658;2023-05-19T04:50:30;101027.06;;;10.21;87.84
29121;BME280;16191;49.548;8.658;2023-05-19T04:52:58;101026.22;;;10.20;88.83
29121;BME280;16191;49.548;8.658;2023-05-19T04:55:25;101021.91;;;10.19;89.33
29121;BME280;16191;49.548;8.658;2023-05-19T04:57:52;101029.56;;;10.25;87.74
29121;BME280;16191;49.548;8.658;2023-05-19T05:00:20;101029.56;;;10.25;89.11
29121;BME280;16191;49.548;8.658;2023-05-19T05:02:55;101030.31;;;10.30;89.21
29121;BME280;16191;49.548;8.658;2023-05-19T05:05:25;101033.94;;;10.25;90.50
29121;BME280;16191;49.548;8.658;2023-05-19T05:07:52;101034.50;;;10.36;88.84
29121;BME280;16191;49.548;8.658;2023-05-19T05:10:20;101037.53;;;10.52;86.31
29121;BME280;16191;49.548;8.658;2023-05-19T05:12:48;101033.13;;;10.54;87.75
29121;BME280;16191;49.548;8.658;2023-05-19T05:15:15;101038.94;;;10.63;87.00
29121;BME280;16191;49.548;8.658;2023-05-19T05:17:43;101034.50;;;10.67;87.78
29121;BME280;16191;49.548;8.658;2023-05-19T05:20:11;101036.94;;;10.73;87.05
29121;BME280;16191;49.548;8.658;2023-05-19T05:22:38;101028.78;;;10.84;86.34
29121;BME280;16191;49.548;8.658;2023-05-19T05:25:07;101034.50;;;10.96;84.62
29121;BME280;16191;49.548;8.658;2023-05-19T05:27:34;101042.13;;;11.04;81.18
29121;BME280;16191;49.548;8.658;2023-05-19T05:30:04;101030.88;;;11.02;82.00
29121;BME280;16191;49.548;8.658;2023-05-19T05:32:30;101033.09;;;11.14;81.43
29121;BME280;16191;49.548;8.658;2023-05-19T05:34:59;101039.84;;;11.21;80.76
29121;BME280;16191;49.548;8.658;2023-05-19T05:37:25;101039.53;;;11.30;79.16
29121;BME280;16191;49.548;8.658;2023-05-19T05:39:52;101038.59;;;11.33;78.92
29121;BME280;16191;49.548;8.658;2023-05-19T05:42:19;101041.13;;;11.36;78.80
29121;BME280;16191;49.548;8.658;2023-05-19T05:44:46;101035.63;;;11.45;79.36
29121;BME280;16191;49.548;8.658;2023-05-19T05:47:13;101028.34;;;11.53;78.20
29121;BME280;16191;49.548;8.658;2023-05-19T05:49:41;101029.13;;;11.57;79.53
29121;BME280;16191;49.548;8.658;2023-05-19T05:52:10;101030.69;;;11.62;78.55
29121;BME280;16191;49.548;8.658;2023-05-19T05:54:43;101023.66;;;11.64;77.31
29121;BME280;16191;49.548;8.658;2023-05-19T05:57:10;101023.28;;;11.75;76.98
29121;BME280;16191;49.548;8.658;2023-05-19T05:59:37;101031.19;;;11.74;76.74
29121;BME280;16191;49.548;8.658;2023-05-19T06:02:06;101028.25;;;11.84;76.75
29121;BME280;16191;49.548;8.658;2023-05-19T06:04:34;101013.03;;;11.95;75.06
29121;BME280;16191;49.548;8.658;2023-05-19T06:07:04;101014.66;;;11.99;76.11
29121;BME280;16191;49.548;8.658;2023-05-19T06:09:34;101007.41;;;12.08;74.16
29121;BME280;16191;49.548;8.658;2023-05-19T06:12:02;101016.41;;;12.24;75.58
29121;BME280;16191;49.548;8.658;2023-05-19T06:14:34;101010.66;;;12.38;75.91
29121;BME280;16191;49.548;8.658;2023-05-19T06:17:12;101009.56;;;12.45;74.00
29121;BME280;16191;49.548;8.658;2023-05-19T06:19:39;101008.31;;;12.55;72.96
29121;BME280;16191;49.548;8.658;2023-05-19T06:22:06;101011.44;;;12.64;72.13
29121;BME280;16191;49.548;8.658;2023-05-19T06:24:33;101015.44;;;12.75;71.27
29121;BME280;16191;49.548;8.658;2023-05-19T06:27:00;101015.13;;;12.82;70.54
29121;BME280;16191;49.548;8.658;2023-05-19T06:29:26;101015.53;;;12.95;70.77
29121;BME280;16191;49.548;8.658;2023-05-19T06:31:55;101012.78;;;12.98;70.62
29121;BME280;16191;49.548;8.658;2023-05-19T06:34:23;101011.78;;;13.00;68.80
29121;BME280;16191;49.548;8.658;2023-05-19T06:36:49;101015.38;;;13.21;69.04
29121;BME280;16191;49.548;8.658;2023-05-19T06:39:18;101006.97;;;13.35;69.18
29121;BME280;16191;49.548;8.658;2023-05-19T06:41:44;101009.22;;;13.44;69.13
29121;BME280;16191;49.548;8.658;2023-05-19T06:44:23;101014.16;;;13.52;68.73
29121;BME280;16191;49.548;8.658;2023-05-19T06:46:50;101020.19;;;13.54;65.06
29121;BME280;16191;49.548;8.658;2023-05-19T06:49:18;101008.91;;;13.52;64.13
29121;BME280;16191;49.548;8.658;2023-05-19T06:51:46;101010.44;;;13.57;63.78
29121;BME280;16191;49.548;8.658;2023-05-19T06:54:13;101007.91;;;13.76;64.51
29121;BME280;16191;49.548;8.658;2023-05-19T06:56:41;101012.31;;;13.96;64.21
29121;BME280;16191;49.548;8.658;2023-05-19T06:59:08;101003.91;;;14.08;63.78
29121;BME280;16191;49.548;8.658;2023-05-19T07:01:36;101003.38;;;14.20;62.69
29121;BME280;16191;49.548;8.658;2023-05-19T07:04:03;101002.91;;;14.31;63.55
29121;BME280;16191;49.548;8.658;2023-05-19T07:06:30;101001.19;;;14.30;61.31
29121;BME280;16191;49.548;8.658;2023-05-19T07:08:57;101007.59;;;14.45;60.99
29121;BME280;16191;49.548;8.658;2023-05-19T07:11:24;101001.63;;;14.41;59.87
29121;BME280;16191;49.548;8.658;2023-05-19T07:13:52;100995.13;;;14.50;59.89
29121;BME280;16191;49.548;8.658;2023-05-19T07:16:24;100993.81;;;14.58;59.36
29121;BME280;16191;49.548;8.658;2023-05-19T07:18:51;100997.63;;;14.71;59.31
29121;BME280;16191;49.548;8.658;2023-05-19T07:21:18;100993.28;;;14.89;59.77
29121;BME280;16191;49.548;8.658;2023-05-19T07:23:45;100980.59;;;14.97;59.53
29121;BME280;16191;49.548;8.658;2023-05-19T07:26:12;100983.59;;;15.08;58.29
29121;BME280;16191;49.548;8.658;2023-05-19T07:28:39;100982.34;;;15.16;57.33
29121;BME280;16191;49.548;8.658;2023-05-19T07:31:08;100980.38;;;15.21;57.24
29121;BME280;16191;49.548;8.658;2023-05-19T07:33:35;100971.91;;;15.33;56.70
29121;BME280;16191;49.548;8.658;2023-05-19T07:36:01;100971.84;;;15.52;55.62
29121;BME280;16191;49.548;8.658;2023-05-19T07:38:29;100964.91;;;15.68;55.84
29121;BME280;16191;49.548;8.658;2023-05-19T07:40:56;100955.09;;;15.71;54.52
29121;BME280;16191;49.548;8.658;2023-05-19T07:43:23;100954.22;;;15.71;53.94
29121;BME280;16191;49.548;8.658;2023-05-19T07:45:50;100955.44;;;15.98;54.17
29121;BME280;16191;49.548;8.658;2023-05-19T07:48:16;100960.84;;;16.13;52.67
29121;BME280;16191;49.548;8.658;2023-05-19T07:50:44;100948.78;;;16.24;51.11
29121;BME280;16191;49.548;8.658;2023-05-19T07:53:10;100954.31;;;16.20;51.13
29121;BME280;16191;49.548;8.658;2023-05-19T07:55:37;100953.31;;;16.22;49.83
29121;BME280;16191;49.548;8.658;2023-05-19T07:58:04;100955.22;;;16.36;49.20
29121;BME280;16191;49.548;8.658;2023-05-19T08:00:30;100945.84;;;16.46;49.75
29121;BME280;16191;49.548;8.658;2023-05-19T08:02:58;100954.94;;;16.73;50.42
29121;BME280;16191;49.548;8.658;2023-05-19T08:05:25;100954.19;;;16.87;48.51
29121;BME280;16191;49.548;8.658;2023-05-19T08:07:52;100942.59;;;16.90;47.88
29121;BME280;16191;49.548;8.658;2023-05-19T08:10:18;100947.28;;;17.00;47.65
29121;BME280;16191;49.548;8.658;2023-05-19T08:12:45;100947.53;;;16.96;47.06
29121;BME280;16191;49.548;8.658;2023-05-19T08:15:12;100936.13;;;17.11;46.63
29121;BME280;16191;49.548;8.658;2023-05-19T08:17:38;100943.00;;;17.13;46.07
29121;BME280;16191;49.548;8.658;2023-05-19T08:20:05;100948.78;;;17.20;45.70
29121;BME280;16191;49.548;8.658;2023-05-19T08:22:34;100943.03;;;17.43;46.34
29121;BME280;16191;49.548;8.658;2023-05-19T08:25:01;100935.53;;;17.52;44.96
29121;BME280;16191;49.548;8.658;2023-05-19T08:27:31;100937.97;;;17.55;46.36
29121;BME280;16191;49.548;8.658;2023-05-19T08:29:58;100941.19;;;17.60;44.84
29121;BME280;16191;49.548;8.658;2023-05-19T08:32:25;100936.66;;;17.77;45.78
29121;BME280;16191;49.548;8.658;2023-05-19T08:34:51;100932.97;;;17.50;45.89
29121;BME280;16191;49.548;8.658;2023-05-19T08:37:18;100939.31;;;17.62;43.44
29121;BME280;16191;49.548;8.658;2023-05-19T08:39:45;100941.56;;;17.84;43.60
29121;BME280;16191;49.548;8.658;2023-05-19T08:42:11;100930.25;;;17.81;43.63
29121;BME280;16191;49.548;8.658;2023-05-19T08:44:38;100933.59;;;18.13;44.95
29121;BME280;16191;49.548;8.658;2023-05-19T08:47:06;100933.88;;;18.37;43.65
29121;BME280;16191;49.548;8.658;2023-05-19T08:49:45;100928.66;;;18.22;43.15
29121;BME280;16191;49.548;8.658;2023-05-19T08:52:21;100925.34;;;18.46;42.14
29121;BME280;16191;49.548;8.658;2023-05-19T08:55:04;100924.97;;;18.53;42.74
29121;BME280;16191;49.548;8.658;2023-05-19T08:57:35;100922.03;;;18.57;44.50
29121;BME280;16191;49.548;8.658;2023-05-19T09:00:03;100914.22;;;18.56;42.85
29121;BME280;16191;49.548;8.658;2023-05-19T09:02:37;100913.34;;;18.69;42.51
29121;BME280;16191;49.548;8.658;2023-05-19T09:05:25;100902.34;;;18.90;42.26
29121;BME280;16191;49.548;8.658;2023-05-19T09:07:52;100899.97;;;18.85;42.76
29121;BME280;16191;49.548;8.658;2023-05-19T09:10:18;100898.00;;;19.15;41.74
29121;BME280;16191;49.548;8.658;2023-05-19T09:12:45;100888.72;;;19.35;41.09
29121;BME280;16191;49.548;8.658;2023-05-19T09:15:15;100908.81;;;19.25;41.43
29121;BME280;16191;49.548;8.658;2023-05-19T09:17:44;100906.88;;;19.14;41.44
29121;BME280;16191;49.548;8.658;2023-05-19T09:20:13;100905.81;;;19.04;40.78
29121;BME280;16191;49.548;8.658;2023-05-19T09:22:43;100914.97;;;18.72;41.56
29121;BME280;16191;49.548;8.658;2023-05-19T09:25:22;100907.44;;;19.20;41.36
29121;BME280;16191;49.548;8.658;2023-05-19T09:27:49;100901.56;;;19.41;41.39
29121;BME280;16191;49.548;8.658;2023-05-19T09:30:17;100889.97;;;19.30;40.20
29121;BME280;16191;49.548;8.658;2023-05-19T09:32:44;100894.31;;;19.18;40.27
29121;BME280;16191;49.548;8.658;2023-05-19T09:35:12;100895.91;;;18.94;41.76
29121;BME280;16191;49.548;8.658;2023-05-19T09:37:39;100886.28;;;19.32;41.37
29121;BME280;16191;49.548;8.658;2023-05-19T09:40:08;100882.13;;;19.68;41.15
29121;BME280;16191;49.548;8.658;2023-05-19T09:42:39;100889.28;;;19.40;41.97
29121;BME280;16191;49.548;8.658;2023-05-19T09:45:07;100874.63;;;19.35;41.10
29121;BME280;16191;49.548;8.658;2023-05-19T09:47:38;100878.03;;;19.49;41.14
29121;BME280;16191;49.548;8.658;2023-05-19T09:50:09;100885.75;;;19.67;41.02
29121;BME280;16191;49.548;8.658;2023-05-19T09:52:38;100876.41;;;20.12;40.47
29121;BME280;16191;49.548;8.658;2023-05-19T09:55:08;100879.16;;;20.60;40.14
29121;BME280;16191;49.548;8.658;2023-05-19T09:57:36;100875.34;;;21.11;38.82
29121;BME280;16191;49.548;8.658;2023-05-19T10:00:07;100870.31;;;21.19;37.90
29121;BME280;16191;49.548;8.658;2023-05-19T10:02:41;100874.28;;;20.90;37.87
29121;BME280;16191;49.548;8.658;2023-05-19T10:05:13;100875.22;;;21.48;37.34
29121;BME280;16191;49.548;8.658;2023-05-19T10:07:43;100865.84;;;21.66;36.98
29121;BME280;16191;49.548;8.658;2023-05-19T10:10:11;100862.00;;;21.59;39.02
29121;BME280;16191;49.548;8.658;2023-05-19T10:12:40;100856.00;;;22.13;37.97
29121;BME280;16191;49.548;8.658;2023-05-19T10:15:12;100858.63;;;22.46;36.34
29121;BME280;16191;49.548;8.658;2023-05-19T10:17:40;100857.72;;;22.68;36.49
29121;BME280;16191;49.548;8.658;2023-05-19T10:20:16;100866.00;;;22.32;36.89
29121;BME280;16191;49.548;8.658;2023-05-19T10:22:45;100853.31;;;22.46;36.66
29121;BME280;16191;49.548;8.658;2023-05-19T10:25:12;100853.97;;;22.71;35.65
29121;BME280;16191;49.548;8.658;2023-05-19T10:27:43;100849.66;;;23.02;35.60
29121;BME280;16191;49.548;8.658;2023-05-19T10:30:17;100853.75;;;23.06;36.56
29121;BME280;16191;49.548;8.658;2023-05-19T10:32:45;100844.94;;;22.62;36.34
29121;BME280;16191;49.548;8.658;2023-05-19T10:35:46;100839.78;;;22.49;36.85
29121;BME280;16191;49.548;8.658;2023-05-19T10:38:39;100829.09;;;23.24;34.87
29121;BME280;16191;49.548;8.658;2023-05-19T10:46:30;100840.66;;;23.14;34.09
29121;BME280;16191;49.548;8.658;2023-05-19T10:48:58;100833.44;;;23.25;34.09
29121;BME280;16191;49.548;8.658;2023-05-19T10:51:30;100843.69;;;23.09;34.37
29121;BME280;16191;49.548;8.658;2023-05-19T10:53:57;100834.59;;;23.12;34.45
29121;BME280;16191;49.548;8.658;2023-05-19T10:56:30;100844.53;;;23.51;33.57
29121;BME280;16191;49.548;8.658;2023-05-19T10:59:00;100843.72;;;24.12;32.39
29121;BME280;16191;49.548;8.658;2023-05-19T11:01:32;100836.19;;;24.76;31.43
29121;BME280;16191;49.548;8.658;2023-05-19T11:04:06;100832.25;;;23.81;33.81
29121;BME280;16191;49.548;8.658;2023-05-19T11:06:35;100825.84;;;24.33;31.27
29121;BME280;16191;49.548;8.658;2023-05-19T11:11:52;100827.75;;;24.62;32.01
29121;BME280;16191;49.548;8.658;2023-05-19T11:14:25;100818.22;;;24.98;31.72
29121;BME280;16191;49.548;8.658;2023-05-19T11:16:55;100814.81;;;24.57;32.13
29121;BME280;16191;49.548;8.658;2023-05-19T11:19:33;100822.31;;;23.62;34.32
29121;BME280;16191;49.548;8.658;2023-05-19T11:22:08;100817.19;;;23.70;34.46
29121;BME280;16191;49.548;8.658;2023-05-19T11:24:47;100811.44;;;24.45;33.47
29121;BME280;16191;49.548;8.658;2023-05-19T11:29:43;100808.63;;;24.76;32.06
29121;BME280;16191;49.548;8.658;2023-05-19T11:32:09;100812.75;;;23.80;34.02
29121;BME280;16191;49.548;8.658;2023-05-19T11:34:37;100809.19;;;23.49;35.46
29121;BME280;16191;49.548;8.658;2023-05-19T11:37:05;100808.84;;;23.33;35.09
29121;BME280;16191;49.548;8.658;2023-05-19T11:39:32;100805.59;;;23.30;35.41
29121;BME280;16191;49.548;8.658;2023-05-19T11:41:58;100807.31;;;22.99;35.43
29121;BME280;16191;49.548;8.658;2023-05-19T11:44:25;100809.25;;;23.80;35.20
29121;BME280;16191;49.548;8.658;2023-05-19T11:46:51;100803.72;;;24.42;33.13
29121;BME280;16191;49.548;8.658;2023-05-19T11:49:18;100800.06;;;24.63;32.21
29121;BME280;16191;49.548;8.658;2023-05-19T11:51:45;100795.09;;;24.29;34.42
29121;BME280;16191;49.548;8.658;2023-05-19T11:54:12;100790.31;;;24.23;34.60
29121;BME280;16191;49.548;8.658;2023-05-19T11:56:39;100786.00;;;24.51;33.52
29121;BME280;16191;49.548;8.658;2023-05-19T11:59:07;100785.81;;;24.23;34.51
29121;BME280;16191;49.548;8.658;2023-05-19T12:01:34;100791.59;;;23.88;35.54
29121;BME280;16191;49.548;8.658;2023-05-19T12:04:01;100786.13;;;23.90;35.30
29121;BME280;16191;49.548;8.658;2023-05-19T12:06:28;100798.22;;;23.43;35.88
29121;BME280;16191;49.548;8.658;2023-05-19T12:08:55;100787.63;;;23.73;34.53
29121;BME280;16191;49.548;8.658;2023-05-19T12:11:22;100790.41;;;23.72;35.50
29121;BME280;16191;49.548;8.658;2023-05-19T12:13:49;100792.03;;;23.63;34.87
29121;BME280;16191;49.548;8.658;2023-05-19T12:16:19;100794.06;;;23.71;35.72
29121;BME280;16191;49.548;8.658;2023-05-19T12:18:46;100789.44;;;24.13;34.89
29121;BME280;16191;49.548;8.658;2023-05-19T12:21:13;100794.69;;;24.34;34.67
29121;BME280;16191;49.548;8.658;2023-05-19T12:23:41;100799.56;;;24.19;34.12
29121;BME280;16191;49.548;8.658;2023-05-19T12:26:08;100794.84;;;23.92;34.43
29121;BME280;16191;49.548;8.658;2023-05-19T12:28:35;100792.00;;;23.53;34.77
29121;BME280;16191;49.548;8.658;2023-05-19T12:31:01;100794.81;;;23.52;35.73
29121;BME280;16191;49.548;8.658;2023-05-19T12:33:31;100793.06;;;21.80;37.46
29121;BME280;16191;49.548;8.658;2023-05-19T12:36:00;100794.88;;;22.13;38.67
29121;BME280;16191;49.548;8.658;2023-05-19T12:38:27;100794.09;;;22.44;36.81
29121;BME280;16191;49.548;8.658;2023-05-19T12:40:57;100781.94;;;21.97;38.17
29121;BME280;16191;49.548;8.658;2023-05-19T12:43:24;100792.69;;;22.29;37.53
29121;BME280;16191;49.548;8.658;2023-05-19T12:45:51;100787.53;;;22.05;38.79
29121;BME280;16191;49.548;8.658;2023-05-19T12:48:20;100787.53;;;22.05;38.74
29121;BME280;16191;49.548;8.658;2023-05-19T12:50:50;100787.38;;;21.96;38.46
29121;BME280;16191;49.548;8.658;2023-05-19T12:53:17;100790.50;;;21.67;38.84
29121;BME280;16191;49.548;8.658;2023-05-19T12:55:44;100790.63;;;21.99;38.15
29121;BME280;16191;49.548;8.658;2023-05-19T12:58:13;100787.97;;;22.10;38.99
29121;BME280;16191;49.548;8.658;2023-05-19T13:00:41;100796.19;;;21.96;39.10
29121;BME280;16191;49.548;8.658;2023-05-19T13:03:15;100785.94;;;22.57;37.96
29121;BME280;16191;49.548;8.658;2023-05-19T13:05:49;100792.03;;;22.48;38.39
29121;BME280;16191;49.548;8.658;2023-05-19T13:08:18;100786.59;;;22.38;39.11
29121;BME280;16191;49.548;8.658;2023-05-19T13:10:46;100774.41;;;22.68;37.91
29121;BME280;16191;49.548;8.658;2023-05-19T13:13:13;100775.72;;;23.05;37.35
29121;BME280;16191;49.548;8.658;2023-05-19T13:15:45;100777.41;;;24.28;35.75
29121;BME280;16191;49.548;8.658;2023-05-19T13:18:13;100781.94;;;24.37;36.31
29121;BME280;16191;49.548;8.658;2023-05-19T13:20:42;100785.53;;;23.77;36.63
29121;BME280;16191;49.548;8.658;2023-05-19T13:23:10;100781.38;;;24.43;35.94
29121;BME280;16191;49.548;8.658;2023-05-19T13:25:37;100781.41;;;24.82;34.63
29121;BME280;16191;49.548;8.658;2023-05-19T13:28:04;100776.03;;;25.30;33.73